Batavia, NY (14020)

4:36 PM EDT on September 03, 2015 (GMT -0400)
Violet Ln. | | Change Station
CLOSE
Current Station
Personal Weather Station
Location: Batavia, NY
Elevation: 893 ft
Nearby Weather Stations

Elev 893 ft 43.01 °N, 78.15 °W | Updated 6 seconds ago

Partly Cloudy
Partly Cloudy
83.1 °F
Feels Like 87 °F
N
4.9
Wind Variable Wind from NNE
Gusts 5.8 mph

Today
High -- | Low -- °F
--% Chance of Precip.
Yesterday
High -- | Low -- °F
Precip. -- in
6:39 AM 7:44 PM
Waning Gibbous, 67% visible
Pressure 29.92 in
Visibility 7.0 miles
Clouds Scattered Clouds 3600 ft
Scattered Clouds 6500 ft
Scattered Clouds 11000 ft
Scattered Clouds 26000 ft
Heat Index 87 °F
Dew Point 70 °F
Humidity 65%
Rainfall 0.00 in
Snow Depth Not available.
UV 4 out of 12
Pollen 10.20 out of 12
Air Quality Not available.
Flu Activity Not available.
SPECI KBUF 032009Z VRB03KT 7SM -RA SCT036CB SCT065 SCT110 SCT260 28/21 A2992 RMK AO2 TSE06 TS DSIPTD CB VC ALQDS MOV SLWY S MDT CU DSNT NE AND NW P0000 T02780211
Pressure 29.92 in
Visibility 7.0 miles
Clouds Scattered Clouds 3600 ft
Scattered Clouds 6500 ft
Scattered Clouds 11000 ft
Scattered Clouds 26000 ft
Heat Index 87 °F
Dew Point 70 °F
Humidity 65%
Rainfall 0.00 in
Snow Depth Not available.
UV 4 out of 12
Pollen 10.20 out of 12
Air Quality Not available.
Flu Activity Not available.
SPECI KBUF 032009Z VRB03KT 7SM -RA SCT036CB SCT065 SCT110 SCT260 28/21 A2992 RMK AO2 TSE06 TS DSIPTD CB VC ALQDS MOV SLWY S MDT CU DSNT NE AND NW P0000 T02780211

10-Day Weather Forecast

×

Almanac

Astronomy

Sep. 03, 2015 Rise Set
Actual Time
Civil Twilight
Nautical Twilight
Astronomical Twilight
Moon
Length of Visible Light
Length of Day
Tomorrow will be .
, % of the Moon is Illuminated

Today's Extremes

State Highs State Lows

Community

WunderPhotos

Upload Photos

1,852,032 photos uploaded!

WunderBlogs® & News

Nearby

Air Quality

  Air Quality AQ Index Pollutant
Not available.

Snow Depth

Station Depth Elevation

Earthquake Activity

City Distance Mag. Time & Date
Minimum magnitude displayed is 2.5.

Coastal Water Temperatures

Place Temperature

Stations

Nearby Weather Stations

Station Location Temp. Windchill Dew Point Humidity Wind Precip. Elev Updated Type